sensor_id;sensor_type;location;lat;lon;timestamp;temperature;humidity
18073;DHT22;9161;47.348;9.648;2023-04-06T00:04:42;1.20;99.90
18073;DHT22;9161;47.348;9.648;2023-04-06T00:09:46;0.90;99.90
18073;DHT22;9161;47.348;9.648;2023-04-06T00:14:48;1.10;99.90
18073;DHT22;9161;47.348;9.648;2023-04-06T00:19:50;1.00;99.90
18073;DHT22;9161;47.348;9.648;2023-04-06T00:24:54;1.20;99.90
18073;DHT22;9161;47.348;9.648;2023-04-06T00:29:56;1.00;99.90
18073;DHT22;9161;47.348;9.648;2023-04-06T00:34:59;0.80;99.90
18073;DHT22;9161;47.348;9.648;2023-04-06T00:40:03;0.70;99.90
18073;DHT22;9161;47.348;9.648;2023-04-06T00:45:06;0.90;99.90
18073;DHT22;9161;47.348;9.648;2023-04-06T00:50:09;1.10;99.90
18073;DHT22;9161;47.348;9.648;2023-04-06T00:55:12;0.80;99.90
18073;DHT22;9161;47.348;9.648;2023-04-06T01:00:15;0.60;99.90
18073;DHT22;9161;47.348;9.648;2023-04-06T01:05:18;0.80;99.90
18073;DHT22;9161;47.348;9.648;2023-04-06T01:10:26;1.40;99.90
18073;DHT22;9161;47.348;9.648;2023-04-06T01:15:29;0.90;99.90
18073;DHT22;9161;47.348;9.648;2023-04-06T01:20:32;0.50;99.90
18073;DHT22;9161;47.348;9.648;2023-04-06T01:25:36;0.70;99.90
18073;DHT22;9161;47.348;9.648;2023-04-06T01:30:38;0.40;99.90
18073;DHT22;9161;47.348;9.648;2023-04-06T01:35:41;0.40;99.90
18073;DHT22;9161;47.348;9.648;2023-04-06T01:40:45;0.20;99.90
18073;DHT22;9161;47.348;9.648;2023-04-06T01:45:47;0.10;99.90
18073;DHT22;9161;47.348;9.648;2023-04-06T01:50:49;0.00;99.90
18073;DHT22;9161;47.348;9.648;2023-04-06T01:55:52;0.30;99.90
18073;DHT22;9161;47.348;9.648;2023-04-06T02:00:55;0.20;99.90
18073;DHT22;9161;47.348;9.648;2023-04-06T02:05:57;0.10;99.90
18073;DHT22;9161;47.348;9.648;2023-04-06T02:11:01;-0.10;99.90
18073;DHT22;9161;47.348;9.648;2023-04-06T02:16:03;-0.20;99.90
18073;DHT22;9161;47.348;9.648;2023-04-06T02:21:05;-0.10;99.90
18073;DHT22;9161;47.348;9.648;2023-04-06T02:26:09;-0.20;99.90
18073;DHT22;9161;47.348;9.648;2023-04-06T02:31:11;0.10;99.90
18073;DHT22;9161;47.348;9.648;2023-04-06T02:36:15;0.20;99.90
18073;DHT22;9161;47.348;9.648;2023-04-06T02:41:19;-0.10;99.90
18073;DHT22;9161;47.348;9.648;2023-04-06T02:46:21;-0.30;99.90
18073;DHT22;9161;47.348;9.648;2023-04-06T02:51:23;-0.50;99.90
18073;DHT22;9161;47.348;9.648;2023-04-06T02:56:27;-0.60;99.90
18073;DHT22;9161;47.348;9.648;2023-04-06T03:01:29;-0.60;99.90
18073;DHT22;9161;47.348;9.648;2023-04-06T03:06:31;-0.60;99.90
18073;DHT22;9161;47.348;9.648;2023-04-06T03:11:35;-0.70;99.90
18073;DHT22;9161;47.348;9.648;2023-04-06T03:16:37;-0.70;99.90
18073;DHT22;9161;47.348;9.648;2023-04-06T03:21:39;-0.80;99.90
18073;DHT22;9161;47.348;9.648;2023-04-06T03:26:43;-0.60;99.90
18073;DHT22;9161;47.348;9.648;2023-04-06T03:31:45;-0.70;99.90
18073;DHT22;9161;47.348;9.648;2023-04-06T03:36:47;-0.80;99.90
18073;DHT22;9161;47.348;9.648;2023-04-06T03:42:09;-0.90;99.90
18073;DHT22;9161;47.348;9.648;2023-04-06T03:47:11;-0.80;99.90
18073;DHT22;9161;47.348;9.648;2023-04-06T03:52:14;-0.70;99.90
18073;DHT22;9161;47.348;9.648;2023-04-06T03:57:18;-0.90;99.90
18073;DHT22;9161;47.348;9.648;2023-04-06T04:02:20;-0.90;99.90
18073;DHT22;9161;47.348;9.648;2023-04-06T04:07:22;-1.00;99.90
18073;DHT22;9161;47.348;9.648;2023-04-06T04:12:26;-0.80;99.90
18073;DHT22;9161;47.348;9.648;2023-04-06T04:17:28;-0.60;99.90
18073;DHT22;9161;47.348;9.648;2023-04-06T04:22:30;-0.70;99.90
18073;DHT22;9161;47.348;9.648;2023-04-06T04:27:35;-0.70;99.90
18073;DHT22;9161;47.348;9.648;2023-04-06T04:32:37;-0.80;99.90
18073;DHT22;9161;47.348;9.648;2023-04-06T04:37:39;-0.50;99.90
18073;DHT22;9161;47.348;9.648;2023-04-06T04:42:43;-0.40;99.90
18073;DHT22;9161;47.348;9.648;2023-04-06T04:47:45;-0.60;99.90
18073;DHT22;9161;47.348;9.648;2023-04-06T04:52:51;-0.80;99.90
18073;DHT22;9161;47.348;9.648;2023-04-06T04:57:54;-0.80;99.90
18073;DHT22;9161;47.348;9.648;2023-04-06T05:02:57;-0.40;99.90
18073;DHT22;9161;47.348;9.648;2023-04-06T05:07:59;-0.40;99.90
18073;DHT22;9161;47.348;9.648;2023-04-06T05:13:03;-0.50;99.90
18073;DHT22;9161;47.348;9.648;2023-04-06T05:18:06;-0.60;99.90
18073;DHT22;9161;47.348;9.648;2023-04-06T05:23:08;-0.90;99.90
18073;DHT22;9161;47.348;9.648;2023-04-06T05:28:12;0.30;99.90
18073;DHT22;9161;47.348;9.648;2023-04-06T05:33:14;0.20;99.90
18073;DHT22;9161;47.348;9.648;2023-04-06T05:38:17;0.10;99.90
18073;DHT22;9161;47.348;9.648;2023-04-06T05:43:20;-0.30;99.90
18073;DHT22;9161;47.348;9.648;2023-04-06T05:48:23;-0.40;99.90
18073;DHT22;9161;47.348;9.648;2023-04-06T05:53:26;-0.40;99.90
18073;DHT22;9161;47.348;9.648;2023-04-06T05:58:31;-0.20;99.90
18073;DHT22;9161;47.348;9.648;2023-04-06T06:03:33;-0.10;99.90
18073;DHT22;9161;47.348;9.648;2023-04-06T06:08:35;-0.10;99.90
18073;DHT22;9161;47.348;9.648;2023-04-06T06:13:38;0.40;99.90
18073;DHT22;9161;47.348;9.648;2023-04-06T06:18:41;1.10;99.90
18073;DHT22;9161;47.348;9.648;2023-04-06T06:23:43;1.70;99.90
18073;DHT22;9161;47.348;9.648;2023-04-06T06:28:46;2.30;99.90
18073;DHT22;9161;47.348;9.648;2023-04-06T06:33:49;2.70;99.90
18073;DHT22;9161;47.348;9.648;2023-04-06T06:38:52;3.20;99.90
18073;DHT22;9161;47.348;9.648;2023-04-06T06:43:56;3.70;99.90
18073;DHT22;9161;47.348;9.648;2023-04-06T06:48:59;4.40;99.90
18073;DHT22;9161;47.348;9.648;2023-04-06T06:54:01;4.70;99.90
18073;DHT22;9161;47.348;9.648;2023-04-06T06:59:05;5.10;99.90
18073;DHT22;9161;47.348;9.648;2023-04-06T07:04:07;5.80;99.90
18073;DHT22;9161;47.348;9.648;2023-04-06T07:09:11;6.30;99.90
18073;DHT22;9161;47.348;9.648;2023-04-06T07:14:15;6.80;99.90
18073;DHT22;9161;47.348;9.648;2023-04-06T07:19:17;7.30;99.90
18073;DHT22;9161;47.348;9.648;2023-04-06T07:24:19;7.70;99.90
18073;DHT22;9161;47.348;9.648;2023-04-06T07:29:23;8.10;99.90
18073;DHT22;9161;47.348;9.648;2023-04-06T07:34:25;8.50;99.90
18073;DHT22;9161;47.348;9.648;2023-04-06T07:39:28;8.90;99.90
18073;DHT22;9161;47.348;9.648;2023-04-06T07:44:32;9.40;99.90
18073;DHT22;9161;47.348;9.648;2023-04-06T07:49:34;9.40;99.90
18073;DHT22;9161;47.348;9.648;2023-04-06T07:54:37;8.20;99.90
18073;DHT22;9161;47.348;9.648;2023-04-06T07:59:41;9.20;99.90
18073;DHT22;9161;47.348;9.648;2023-04-06T08:04:44;9.50;98.00
18073;DHT22;9161;47.348;9.648;2023-04-06T08:09:46;8.60;96.10
18073;DHT22;9161;47.348;9.648;2023-04-06T08:14:50;8.80;96.00
18073;DHT22;9161;47.348;9.648;2023-04-06T08:19:52;9.00;96.20
18073;DHT22;9161;47.348;9.648;2023-04-06T08:24:55;9.60;95.20
18073;DHT22;9161;47.348;9.648;2023-04-06T08:29:58;9.10;96.50
18073;DHT22;9161;47.348;9.648;2023-04-06T08:35:01;8.90;95.30
18073;DHT22;9161;47.348;9.648;2023-04-06T08:40:05;9.40;95.00
18073;DHT22;9161;47.348;9.648;2023-04-06T08:45:10;9.20;94.80
18073;DHT22;9161;47.348;9.648;2023-04-06T08:50:13;10.40;95.80
18073;DHT22;9161;47.348;9.648;2023-04-06T08:55:15;11.10;97.40
18073;DHT22;9161;47.348;9.648;2023-04-06T09:00:20;12.70;98.50
18073;DHT22;9161;47.348;9.648;2023-04-06T09:05:24;13.90;95.00
18073;DHT22;9161;47.348;9.648;2023-04-06T09:10:28;14.30;94.20
18073;DHT22;9161;47.348;9.648;2023-04-06T09:15:32;15.40;92.90
18073;DHT22;9161;47.348;9.648;2023-04-06T09:20:34;15.60;85.80
18073;DHT22;9161;47.348;9.648;2023-04-06T09:25:36;15.30;92.50
18073;DHT22;9161;47.348;9.648;2023-04-06T09:30:49;15.30;92.40
18073;DHT22;9161;47.348;9.648;2023-04-06T09:35:51;16.00;91.30
18073;DHT22;9161;47.348;9.648;2023-04-06T09:40:54;16.90;91.50
18073;DHT22;9161;47.348;9.648;2023-04-06T09:46:04;16.60;82.20
18073;DHT22;9161;47.348;9.648;2023-04-06T09:51:07;17.50;90.90
18073;DHT22;9161;47.348;9.648;2023-04-06T09:56:12;17.70;90.30
18073;DHT22;9161;47.348;9.648;2023-04-06T10:01:20;18.50;85.50
18073;DHT22;9161;47.348;9.648;2023-04-06T10:06:27;19.40;88.10
18073;DHT22;9161;47.348;9.648;2023-04-06T10:11:30;19.20;78.10
18073;DHT22;9161;47.348;9.648;2023-04-06T10:16:34;19.20;81.00
18073;DHT22;9161;47.348;9.648;2023-04-06T10:21:38;19.40;73.80
18073;DHT22;9161;47.348;9.648;2023-04-06T10:26:42;20.00;81.20
18073;DHT22;9161;47.348;9.648;2023-04-06T10:31:49;19.80;72.90
18073;DHT22;9161;47.348;9.648;2023-04-06T10:36:51;17.60;74.10
18073;DHT22;9161;47.348;9.648;2023-04-06T10:41:54;18.30;76.00
18073;DHT22;9161;47.348;9.648;2023-04-06T10:46:59;20.10;80.60
18073;DHT22;9161;47.348;9.648;2023-04-06T10:52:02;21.40;75.80
18073;DHT22;9161;47.348;9.648;2023-04-06T10:57:05;21.50;76.70
18073;DHT22;9161;47.348;9.648;2023-04-06T11:02:09;21.80;75.30
18073;DHT22;9161;47.348;9.648;2023-04-06T11:07:23;21.80;72.40
18073;DHT22;9161;47.348;9.648;2023-04-06T11:12:26;22.70;76.20
18073;DHT22;9161;47.348;9.648;2023-04-06T11:17:31;22.30;64.20
18073;DHT22;9161;47.348;9.648;2023-04-06T11:22:34;21.30;73.50
18073;DHT22;9161;47.348;9.648;2023-04-06T11:27:36;21.00;65.40
18073;DHT22;9161;47.348;9.648;2023-04-06T11:32:41;21.10;63.90
18073;DHT22;9161;47.348;9.648;2023-04-06T11:37:44;21.80;71.10
18073;DHT22;9161;47.348;9.648;2023-04-06T11:42:52;22.30;70.20
18073;DHT22;9161;47.348;9.648;2023-04-06T11:47:59;23.40;73.60
18073;DHT22;9161;47.348;9.648;2023-04-06T11:53:02;24.30;67.90
18073;DHT22;9161;47.348;9.648;2023-04-06T11:58:04;24.10;66.40
18073;DHT22;9161;47.348;9.648;2023-04-06T12:03:09;23.10;63.10
18073;DHT22;9161;47.348;9.648;2023-04-06T12:08:11;23.90;63.10
18073;DHT22;9161;47.348;9.648;2023-04-06T12:13:13;23.80;61.00
18073;DHT22;9161;47.348;9.648;2023-04-06T12:18:17;22.90;60.70
18073;DHT22;9161;47.348;9.648;2023-04-06T12:23:19;22.90;67.40
18073;DHT22;9161;47.348;9.648;2023-04-06T12:28:22;23.70;59.40
18073;DHT22;9161;47.348;9.648;2023-04-06T12:33:29;24.00;63.70
18073;DHT22;9161;47.348;9.648;2023-04-06T12:38:31;24.80;65.00
18073;DHT22;9161;47.348;9.648;2023-04-06T12:43:33;25.80;63.30
18073;DHT22;9161;47.348;9.648;2023-04-06T12:48:37;24.90;62.80
18073;DHT22;9161;47.348;9.648;2023-04-06T12:53:40;25.00;61.60
18073;DHT22;9161;47.348;9.648;2023-04-06T12:58:42;25.70;61.20
18073;DHT22;9161;47.348;9.648;2023-04-06T13:03:46;25.20;62.50
18073;DHT22;9161;47.348;9.648;2023-04-06T13:08:48;24.80;60.80
18073;DHT22;9161;47.348;9.648;2023-04-06T13:13:51;25.90;57.50
18073;DHT22;9161;47.348;9.648;2023-04-06T13:18:55;25.10;55.70
18073;DHT22;9161;47.348;9.648;2023-04-06T13:23:57;24.80;59.50
18073;DHT22;9161;47.348;9.648;2023-04-06T13:28:59;26.00;59.50
18073;DHT22;9161;47.348;9.648;2023-04-06T13:34:04;23.10;56.40
18073;DHT22;9161;47.348;9.648;2023-04-06T13:39:06;26.10;57.30
18073;DHT22;9161;47.348;9.648;2023-04-06T13:44:09;27.00;52.80
18073;DHT22;9161;47.348;9.648;2023-04-06T13:49:13;27.00;52.20
18073;DHT22;9161;47.348;9.648;2023-04-06T13:54:16;27.10;53.80
18073;DHT22;9161;47.348;9.648;2023-04-06T13:59:19;26.90;56.10
18073;DHT22;9161;47.348;9.648;2023-04-06T14:04:22;25.30;53.60
18073;DHT22;9161;47.348;9.648;2023-04-06T14:09:24;24.40;53.00
18073;DHT22;9161;47.348;9.648;2023-04-06T14:14:27;24.20;54.90
18073;DHT22;9161;47.348;9.648;2023-04-06T14:19:31;26.10;55.80
18073;DHT22;9161;47.348;9.648;2023-04-06T14:24:33;24.70;54.20
18073;DHT22;9161;47.348;9.648;2023-04-06T14:29:35;25.70;56.50
18073;DHT22;9161;47.348;9.648;2023-04-06T14:34:40;26.00;52.60
18073;DHT22;9161;47.348;9.648;2023-04-06T14:39:43;25.40;54.80
18073;DHT22;9161;47.348;9.648;2023-04-06T14:44:46;25.90;55.30
18073;DHT22;9161;47.348;9.648;2023-04-06T14:49:51;25.80;54.80
18073;DHT22;9161;47.348;9.648;2023-04-06T14:54:54;26.00;54.10
18073;DHT22;9161;47.348;9.648;2023-04-06T14:59:55;25.50;54.40
18073;DHT22;9161;47.348;9.648;2023-04-06T15:04:59;24.10;55.60
18073;DHT22;9161;47.348;9.648;2023-04-06T15:10:02;22.30;58.10
18073;DHT22;9161;47.348;9.648;2023-04-06T15:15:05;22.00;57.90
18073;DHT22;9161;47.348;9.648;2023-04-06T15:20:10;20.80;58.80
18073;DHT22;9161;47.348;9.648;2023-04-06T15:25:12;20.50;60.00
18073;DHT22;9161;47.348;9.648;2023-04-06T15:30:15;21.70;58.80
18073;DHT22;9161;47.348;9.648;2023-04-06T15:35:19;22.10;58.30
18073;DHT22;9161;47.348;9.648;2023-04-06T15:40:21;21.70;57.50
18073;DHT22;9161;47.348;9.648;2023-04-06T15:45:24;21.50;58.60
18073;DHT22;9161;47.348;9.648;2023-04-06T15:50:28;20.30;58.90
18073;DHT22;9161;47.348;9.648;2023-04-06T15:55:31;19.90;59.30
18073;DHT22;9161;47.348;9.648;2023-04-06T16:00:33;19.40;59.60
18073;DHT22;9161;47.348;9.648;2023-04-06T16:05:37;18.90;61.10
18073;DHT22;9161;47.348;9.648;2023-04-06T16:10:58;18.00;62.00
18073;DHT22;9161;47.348;9.648;2023-04-06T16:16:01;17.40;62.40
18073;DHT22;9161;47.348;9.648;2023-04-06T16:21:06;17.00;63.60
18073;DHT22;9161;47.348;9.648;2023-04-06T16:26:10;16.20;67.00
18073;DHT22;9161;47.348;9.648;2023-04-06T16:31:17;16.00;67.30
18073;DHT22;9161;47.348;9.648;2023-04-06T16:36:24;15.40;69.40
18073;DHT22;9161;47.348;9.648;2023-04-06T16:41:27;14.90;71.50
18073;DHT22;9161;47.348;9.648;2023-04-06T16:46:31;14.70;72.60
18073;DHT22;9161;47.348;9.648;2023-04-06T16:51:35;14.20;72.20
18073;DHT22;9161;47.348;9.648;2023-04-06T16:56:37;14.00;75.10
18073;DHT22;9161;47.348;9.648;2023-04-06T17:01:40;13.60;76.00
18073;DHT22;9161;47.348;9.648;2023-04-06T17:06:44;13.10;74.20
18073;DHT22;9161;47.348;9.648;2023-04-06T17:11:46;12.80;75.60
18073;DHT22;9161;47.348;9.648;2023-04-06T17:16:48;12.70;77.70
18073;DHT22;9161;47.348;9.648;2023-04-06T17:21:52;12.40;77.60
18073;DHT22;9161;47.348;9.648;2023-04-06T17:26:54;12.10;79.00
18073;DHT22;9161;47.348;9.648;2023-04-06T17:31:57;11.80;80.50
18073;DHT22;9161;47.348;9.648;2023-04-06T17:37:02;11.50;82.70
18073;DHT22;9161;47.348;9.648;2023-04-06T17:42:04;11.20;81.70
18073;DHT22;9161;47.348;9.648;2023-04-06T17:47:06;11.00;84.50
18073;DHT22;9161;47.348;9.648;2023-04-06T17:52:10;10.70;87.50
18073;DHT22;9161;47.348;9.648;2023-04-06T17:57:13;10.50;89.20
18073;DHT22;9161;47.348;9.648;2023-04-06T18:02:15;10.30;88.40
18073;DHT22;9161;47.348;9.648;2023-04-06T18:07:21;10.10;89.60
18073;DHT22;9161;47.348;9.648;2023-04-06T18:12:23;9.90;88.10
18073;DHT22;9161;47.348;9.648;2023-04-06T18:17:26;9.80;91.20
18073;DHT22;9161;47.348;9.648;2023-04-06T18:22:32;9.60;90.40
18073;DHT22;9161;47.348;9.648;2023-04-06T18:27:36;9.30;90.30
18073;DHT22;9161;47.348;9.648;2023-04-06T18:32:39;9.20;91.20
18073;DHT22;9161;47.348;9.648;2023-04-06T18:37:42;9.10;91.10
18073;DHT22;9161;47.348;9.648;2023-04-06T18:42:46;9.10;91.60
18073;DHT22;9161;47.348;9.648;2023-04-06T18:47:48;9.10;92.00
18073;DHT22;9161;47.348;9.648;2023-04-06T18:52:52;9.10;93.50
18073;DHT22;9161;47.348;9.648;2023-04-06T18:57:55;8.90;92.80
18073;DHT22;9161;47.348;9.648;2023-04-06T19:02:58;8.70;93.20
18073;DHT22;9161;47.348;9.648;2023-04-06T19:08:04;8.60;92.90
18073;DHT22;9161;47.348;9.648;2023-04-06T19:13:06;8.60;92.50
18073;DHT22;9161;47.348;9.648;2023-04-06T19:18:09;8.70;92.60
18073;DHT22;9161;47.348;9.648;2023-04-06T19:23:13;8.70;93.20
18073;DHT22;9161;47.348;9.648;2023-04-06T19:28:16;8.80;94.90
18073;DHT22;9161;47.348;9.648;2023-04-06T19:33:19;8.80;93.40
18073;DHT22;9161;47.348;9.648;2023-04-06T19:44:21;8.80;92.40
18073;DHT22;9161;47.348;9.648;2023-04-06T19:49:27;8.90;93.50
18073;DHT22;9161;47.348;9.648;2023-04-06T19:54:43;8.90;92.50
18073;DHT22;9161;47.348;9.648;2023-04-06T19:59:48;8.90;92.40
18073;DHT22;9161;47.348;9.648;2023-04-06T20:04:50;8.80;93.10
18073;DHT22;9161;47.348;9.648;2023-04-06T20:09:53;8.70;93.20
18073;DHT22;9161;47.348;9.648;2023-04-06T20:14:56;8.70;92.40
18073;DHT22;9161;47.348;9.648;2023-04-06T20:19:58;8.80;93.30
18073;DHT22;9161;47.348;9.648;2023-04-06T20:25:01;9.00;89.30
18073;DHT22;9161;47.348;9.648;2023-04-06T20:30:06;9.20;87.80
18073;DHT22;9161;47.348;9.648;2023-04-06T20:35:09;9.40;85.20
18073;DHT22;9161;47.348;9.648;2023-04-06T20:40:12;9.50;85.70
18073;DHT22;9161;47.348;9.648;2023-04-06T20:45:16;9.50;83.00
18073;DHT22;9161;47.348;9.648;2023-04-06T20:50:18;9.50;83.50
18073;DHT22;9161;47.348;9.648;2023-04-06T20:55:21;9.50;85.40
18073;DHT22;9161;47.348;9.648;2023-04-06T21:00:24;9.40;84.70
18073;DHT22;9161;47.348;9.648;2023-04-06T21:05:27;9.40;86.30
18073;DHT22;9161;47.348;9.648;2023-04-06T21:10:29;9.50;83.70
18073;DHT22;9161;47.348;9.648;2023-04-06T21:15:33;9.30;87.30
18073;DHT22;9161;47.348;9.648;2023-04-06T21:20:36;9.30;90.10
18073;DHT22;9161;47.348;9.648;2023-04-06T21:25:39;9.10;91.10
18073;DHT22;9161;47.348;9.648;2023-04-06T21:30:44;9.10;90.80
18073;DHT22;9161;47.348;9.648;2023-04-06T21:35:47;9.10;88.70
18073;DHT22;9161;47.348;9.648;2023-04-06T21:40:58;9.10;90.30
18073;DHT22;9161;47.348;9.648;2023-04-06T21:46:02;9.10;91.30
18073;DHT22;9161;47.348;9.648;2023-04-06T21:51:04;9.00;91.40
18073;DHT22;9161;47.348;9.648;2023-04-06T21:56:07;8.90;91.90
18073;DHT22;9161;47.348;9.648;2023-04-06T22:01:12;8.70;93.80
18073;DHT22;9161;47.348;9.648;2023-04-06T22:06:13;8.70;95.20
18073;DHT22;9161;47.348;9.648;2023-04-06T22:11:16;8.60;94.40
18073;DHT22;9161;47.348;9.648;2023-04-06T22:16:19;8.60;94.50
18073;DHT22;9161;47.348;9.648;2023-04-06T22:21:22;8.50;94.50
18073;DHT22;9161;47.348;9.648;2023-04-06T22:26:24;8.60;96.90
18073;DHT22;9161;47.348;9.648;2023-04-06T22:31:28;8.40;97.70
18073;DHT22;9161;47.348;9.648;2023-04-06T22:36:30;8.30;94.90
18073;DHT22;9161;47.348;9.648;2023-04-06T22:41:32;8.40;95.10
18073;DHT22;9161;47.348;9.648;2023-04-06T22:46:36;8.50;96.00
18073;DHT22;9161;47.348;9.648;2023-04-06T22:51:38;8.50;96.50
18073;DHT22;9161;47.348;9.648;2023-04-06T22:56:42;8.30;96.50
18073;DHT22;9161;47.348;9.648;2023-04-06T23:01:45;8.30;94.70
18073;DHT22;9161;47.348;9.648;2023-04-06T23:06:47;8.50;93.40
18073;DHT22;9161;47.348;9.648;2023-04-06T23:11:49;8.70;92.00
18073;DHT22;9161;47.348;9.648;2023-04-06T23:16:53;8.80;93.80
18073;DHT22;9161;47.348;9.648;2023-04-06T23:21:56;8.70;93.70
18073;DHT22;9161;47.348;9.648;2023-04-06T23:26:58;8.70;93.70
18073;DHT22;9161;47.348;9.648;2023-04-06T23:32:02;8.60;93.60
18073;DHT22;9161;47.348;9.648;2023-04-06T23:37:04;8.50;94.10
18073;DHT22;9161;47.348;9.648;2023-04-06T23:42:07;8.40;94.20
18073;DHT22;9161;47.348;9.648;2023-04-06T23:47:10;8.50;94.00
18073;DHT22;9161;47.348;9.648;2023-04-06T23:52:12;8.50;94.50
18073;DHT22;9161;47.348;9.648;2023-04-06T23:57:15;8.40;95.00
